createdAt,value
2023-05-12T04:07:08.614Z,100903.28
2023-05-12T04:10:11.447Z,100899.69
2023-05-12T04:13:14.587Z,100905.22
2023-05-12T04:16:17.138Z,100907.41
2023-05-12T04:19:20.178Z,100906.00
2023-05-12T04:22:25.757Z,100918.00
2023-05-12T04:25:28.477Z,100914.34
2023-05-12T04:28:31.208Z,100918.19
2023-05-12T04:31:33.807Z,100921.47
2023-05-12T04:34:36.836Z,100919.53
2023-05-12T04:37:40.806Z,100923.59
2023-05-12T04:40:43.324Z,100921.28
2023-05-12T04:46:53.500Z,100933.00
2023-05-12T04:49:56.039Z,100942.69
2023-05-12T04:52:59.853Z,100945.25
2023-05-12T04:56:02.354Z,100942.25
2023-05-12T04:59:04.864Z,100948.41
2023-05-12T05:02:07.510Z,100948.75
2023-05-12T05:05:10.843Z,100956.84
2023-05-12T05:08:14.673Z,100951.81
2023-05-12T05:11:17.153Z,100962.81
2023-05-12T05:14:19.657Z,100954.78
2023-05-12T05:17:22.249Z,100960.25
2023-05-12T05:20:28.697Z,100956.31
2023-05-12T05:23:33.034Z,100961.34
2023-05-12T05:26:35.770Z,100960.06
2023-05-12T05:29:38.287Z,100958.59
2023-05-12T05:32:40.932Z,100968.47
2023-05-12T05:35:43.816Z,100968.81
2023-05-12T05:38:47.638Z,100969.28
2023-05-12T05:41:50.125Z,100973.91
2023-05-12T05:44:52.662Z,100977.06
2023-05-12T05:47:55.180Z,100976.25
2023-05-12T05:50:57.803Z,100980.69
2023-05-12T05:54:01.640Z,100979.81
2023-05-12T05:57:04.117Z,100979.81
2023-05-12T06:00:09.012Z,100983.00
2023-05-12T06:03:11.598Z,100985.00
2023-05-12T06:06:14.332Z,100996.38
2023-05-12T06:09:18.197Z,100995.50
2023-05-12T06:12:20.763Z,100999.38
2023-05-12T06:15:23.553Z,100999.47
2023-05-12T06:18:26.146Z,100997.13
2023-05-12T06:21:28.692Z,101006.41
2023-05-12T06:24:32.697Z,100999.94
2023-05-12T06:27:35.351Z,101008.06
2023-05-12T06:30:38.304Z,101018.03
2023-05-12T06:33:40.820Z,101014.19
2023-05-12T06:36:43.351Z,101016.50
2023-05-12T06:39:47.180Z,101018.41
2023-05-12T06:42:49.923Z,101022.69
2023-05-12T06:45:52.521Z,101018.91
2023-05-12T06:48:55.570Z,101025.81
2023-05-12T06:51:58.083Z,101020.91
2023-05-12T06:55:01.951Z,101022.63
2023-05-12T06:58:04.546Z,101026.34
2023-05-12T07:01:07.120Z,101023.34
2023-05-12T07:04:09.685Z,101022.72
2023-05-12T07:07:12.286Z,101032.56
2023-05-12T07:10:16.318Z,101033.38
2023-05-12T07:13:19.139Z,101032.00
2023-05-12T07:16:21.706Z,101035.44
2023-05-12T07:19:24.367Z,101030.94
2023-05-12T07:22:26.970Z,101030.94
2023-05-12T07:25:31.240Z,101030.06
2023-05-12T07:28:36.162Z,101028.00
2023-05-12T07:31:38.726Z,101029.50
2023-05-12T07:34:41.280Z,101035.53
2023-05-12T07:37:43.824Z,101033.16
2023-05-12T07:40:47.749Z,101035.91
2023-05-12T07:43:50.328Z,101046.59
2023-05-12T07:46:52.919Z,101038.63
2023-05-12T07:49:55.538Z,101048.88
2023-05-12T07:52:58.055Z,101044.81
2023-05-12T07:56:02.024Z,101041.84
2023-05-12T07:59:04.581Z,101037.31
2023-05-12T08:02:08.086Z,101039.44
2023-05-12T08:05:11.653Z,101040.28
2023-05-12T08:08:16.756Z,101038.56
2023-05-12T08:11:20.949Z,101039.00
2023-05-12T08:14:25.598Z,101041.56
2023-05-12T08:17:29.394Z,101039.75
2023-05-12T08:20:32.519Z,101036.94
2023-05-12T08:23:37.655Z,101040.44
2023-05-12T08:26:41.521Z,101048.53
2023-05-12T08:29:44.025Z,101047.41
2023-05-12T08:32:46.987Z,101055.09
2023-05-12T08:35:49.587Z,101047.88
2023-05-12T08:38:52.138Z,101052.78
2023-05-12T08:42:09.330Z,101063.84
2023-05-12T08:45:12.800Z,101074.88
2023-05-12T08:48:18.626Z,101068.81
2023-05-12T08:51:22.756Z,101071.63
2023-05-12T08:54:28.065Z,101072.28
2023-05-12T08:57:32.340Z,101066.50
2023-05-12T09:00:37.077Z,101069.88
2023-05-12T09:03:39.852Z,101054.69
2023-05-12T09:06:42.921Z,101053.78
2023-05-12T09:09:47.888Z,101058.41
2023-05-12T09:12:55.763Z,101046.22
2023-05-12T09:16:01.601Z,101039.09
2023-05-12T09:19:06.662Z,101056.16
2023-05-12T09:22:14.739Z,101056.03
2023-05-12T09:25:18.940Z,101053.28
2023-05-12T09:28:23.111Z,101054.53
2023-05-12T09:31:26.124Z,101053.22
2023-05-12T09:34:30.545Z,101055.78
2023-05-12T09:37:34.416Z,101052.94
2023-05-12T09:40:37.530Z,101052.53
2023-05-12T09:43:47.038Z,101049.69
2023-05-12T09:46:49.983Z,101045.84
2023-05-12T09:49:53.210Z,101054.16
2023-05-12T09:52:55.897Z,101048.97
2023-05-12T09:55:58.375Z,101035.16
2023-05-12T09:59:05.379Z,101051.63
2023-05-12T10:02:11.042Z,101047.38
2023-05-12T10:05:17.108Z,101032.13
2023-05-12T10:08:25.203Z,101032.75
2023-05-12T10:11:30.116Z,101042.38
2023-05-12T10:14:35.483Z,101031.72
2023-05-12T10:17:38.505Z,101044.22
2023-05-12T10:20:42.245Z,101037.81
2023-05-12T10:23:45.741Z,101036.75
2023-05-12T10:26:48.464Z,101033.28
2023-05-12T10:29:53.704Z,101031.97
2023-05-12T10:32:57.401Z,101029.13
2023-05-12T10:36:00.289Z,101021.75
2023-05-12T10:39:06.789Z,101017.00
2023-05-12T10:42:10.068Z,101026.28
2023-05-12T10:45:18.687Z,101025.59
2023-05-12T10:48:21.408Z,101033.38
2023-05-12T10:51:26.386Z,101022.59
2023-05-12T10:54:28.921Z,101024.19
2023-05-12T10:57:33.566Z,101033.94
2023-05-12T11:00:46.802Z,101017.13
2023-05-12T11:03:51.070Z,101012.91
2023-05-12T11:07:01.042Z,101004.81
2023-05-12T11:10:06.219Z,101016.84
2023-05-12T11:13:10.976Z,101011.91
2023-05-12T11:16:14.962Z,101024.25
2023-05-12T11:19:19.517Z,101019.13
2023-05-12T11:22:23.418Z,101014.09
2023-05-12T11:25:27.841Z,101003.16
2023-05-12T11:28:30.406Z,100996.34
2023-05-12T11:31:35.176Z,101004.56
2023-05-12T11:34:37.896Z,101014.16
2023-05-12T11:37:42.135Z,100999.00
2023-05-12T11:40:45.139Z,101001.78
2023-05-12T11:43:47.635Z,101007.44
2023-05-12T11:46:59.593Z,101020.53
2023-05-12T11:50:04.490Z,101015.41
2023-05-12T11:53:12.256Z,101017.00
2023-05-12T11:56:19.659Z,101023.16
2023-05-12T11:59:30.688Z,101027.69
2023-05-12T12:02:35.890Z,101024.09
2023-05-12T12:05:39.182Z,101017.88
2023-05-12T12:08:50.977Z,101025.28
2023-05-12T12:11:53.499Z,101023.06
2023-05-12T12:14:59.979Z,101032.56
2023-05-12T12:18:03.972Z,101038.19
2023-05-12T12:21:06.624Z,101030.22
2023-05-12T12:24:09.325Z,101032.09
2023-05-12T12:27:11.847Z,101022.28
2023-05-12T12:30:15.474Z,101018.50
2023-05-12T12:33:20.650Z,101028.13
2023-05-12T12:36:23.378Z,101027.75
2023-05-12T12:39:25.940Z,101026.84
2023-05-12T12:42:28.831Z,101027.25
2023-05-12T12:45:31.480Z,101033.00
2023-05-12T12:48:35.741Z,101031.13
2023-05-12T12:51:45.603Z,101023.97
2023-05-12T12:54:49.150Z,101029.47
2023-05-12T12:57:51.775Z,101026.72
2023-05-12T13:00:54.428Z,101030.97
2023-05-12T13:04:00.284Z,101029.91
2023-05-12T13:07:02.795Z,101023.84
2023-05-12T13:10:06.258Z,101017.03
2023-05-12T13:13:11.862Z,101015.44
2023-05-12T13:16:14.539Z,101014.19
2023-05-12T13:19:18.364Z,101019.59
2023-05-12T13:22:21.015Z,101019.13
2023-05-12T13:25:23.709Z,101021.69
2023-05-12T13:28:26.404Z,101012.63
2023-05-12T13:31:29.094Z,101015.09
2023-05-12T13:34:33.078Z,101012.13
2023-05-12T13:37:35.881Z,101010.50
2023-05-12T13:40:38.485Z,101005.94
2023-05-12T13:43:40.986Z,101007.72
2023-05-12T13:46:43.618Z,101004.59
2023-05-12T13:49:47.585Z,100999.97
2023-05-12T13:52:50.099Z,100997.81
2023-05-12T13:55:52.621Z,100997.09
2023-05-12T13:58:55.117Z,100990.50
2023-05-12T14:01:57.842Z,100993.53
2023-05-12T14:05:01.772Z,100994.66
2023-05-12T14:08:04.470Z,100984.72
2023-05-12T14:11:07.118Z,100994.22
2023-05-12T14:14:09.666Z,100991.50
2023-05-12T14:17:12.143Z,101001.91
2023-05-12T14:20:16.070Z,101002.53
2023-05-12T14:23:18.619Z,100997.16
2023-05-12T14:26:21.564Z,100990.47
2023-05-12T14:29:24.202Z,100995.31
2023-05-12T14:32:27.109Z,101002.31
2023-05-12T14:35:31.205Z,100996.81
2023-05-12T14:38:33.842Z,100986.50
2023-05-12T14:41:36.408Z,100993.28
2023-05-12T14:44:38.914Z,100988.13
2023-05-12T14:47:41.628Z,100995.84
2023-05-12T14:50:45.851Z,101007.28
2023-05-12T14:53:48.750Z,100985.22
2023-05-12T14:56:51.413Z,100986.06
2023-05-12T14:59:58.626Z,100990.50
2023-05-12T15:03:01.929Z,100995.53
2023-05-12T15:06:07.892Z,100982.81
2023-05-12T15:09:10.953Z,100979.22
2023-05-12T15:12:13.497Z,100984.16
2023-05-12T15:15:16.101Z,100990.94
2023-05-12T15:18:18.654Z,100982.34
2023-05-12T15:21:23.334Z,100993.09
2023-05-12T15:24:26.517Z,100997.16
2023-05-12T15:27:29.038Z,100996.16
2023-05-12T15:30:31.548Z,100988.56
2023-05-12T15:33:34.207Z,100990.25
2023-05-12T15:36:38.205Z,100986.06
2023-05-12T15:39:40.745Z,100978.16
2023-05-12T15:42:43.459Z,100984.53
2023-05-12T15:45:46.288Z,100983.25
2023-05-12T15:48:49.609Z,100985.88
2023-05-12T15:51:53.557Z,100976.97
2023-05-12T15:54:56.172Z,100974.47
2023-05-12T15:57:58.803Z,100984.84
2023-05-12T16:01:01.393Z,100987.78
2023-05-12T16:04:03.985Z,100985.09
2023-05-12T16:07:07.848Z,100972.34
2023-05-12T16:10:11.126Z,100980.97
2023-05-12T16:13:14.543Z,100983.13
2023-05-12T16:16:17.594Z,100982.25
2023-05-12T16:19:20.212Z,100973.34
2023-05-12T16:22:24.149Z,100977.91
2023-05-12T16:25:26.944Z,100975.66
2023-05-12T16:28:29.485Z,100966.03
2023-05-12T16:31:32.127Z,100976.22
2023-05-12T16:34:34.698Z,100973.53
2023-05-12T16:37:38.638Z,100976.34
2023-05-12T16:40:41.278Z,100963.94
2023-05-12T16:43:43.877Z,100964.75
2023-05-12T16:46:46.572Z,100963.22
2023-05-12T16:49:53.150Z,100960.09
2023-05-12T16:52:57.247Z,100964.66
2023-05-12T16:56:06.472Z,100968.47
2023-05-12T16:59:09.028Z,100967.31
2023-05-12T17:02:11.869Z,100973.16
2023-05-12T17:08:20.583Z,100967.84
2023-05-12T17:11:24.585Z,100969.25
2023-05-12T17:14:27.508Z,100976.00
2023-05-12T17:17:30.028Z,100974.00
2023-05-12T17:20:33.152Z,100978.16
2023-05-12T17:23:37.722Z,100980.47
2023-05-12T17:26:40.307Z,100977.56
2023-05-12T17:29:42.896Z,100971.81
2023-05-12T17:32:45.465Z,100972.47
2023-05-12T17:36:03.843Z,100978.31
2023-05-12T17:39:15.767Z,100977.59
2023-05-12T17:42:18.596Z,100978.84
2023-05-12T17:45:21.433Z,100974.38
2023-05-12T17:48:26.364Z,100975.44
2023-05-12T17:51:29.834Z,100970.06
2023-05-12T17:54:33.983Z,100978.25
2023-05-12T17:57:39.074Z,100980.94
2023-05-12T18:00:41.632Z,100986.38
2023-05-12T18:03:44.226Z,100984.09
2023-05-12T18:06:50.040Z,100982.41
2023-05-12T18:09:53.960Z,100989.47
2023-05-12T18:12:56.471Z,100992.97
2023-05-12T18:15:58.979Z,100993.84
2023-05-12T18:19:01.816Z,100989.25
2023-05-12T18:22:04.461Z,100999.59
2023-05-12T18:25:10.054Z,101004.56
2023-05-12T18:28:12.535Z,101007.22
2023-05-12T18:31:16.339Z,101003.78
2023-05-12T18:34:19.299Z,101006.00
2023-05-12T18:37:21.832Z,101011.16
2023-05-12T18:40:25.773Z,101018.09
2023-05-12T18:43:28.496Z,101016.78
2023-05-12T18:46:31.069Z,101022.25
2023-05-12T18:49:33.699Z,101020.16
2023-05-12T18:52:36.392Z,101018.16
2023-05-12T18:55:40.363Z,101024.44
2023-05-12T18:58:42.852Z,101028.50
2023-05-12T19:01:45.557Z,101024.19
2023-05-12T19:04:48.430Z,101025.47
2023-05-12T19:07:51.252Z,101034.84
2023-05-12T19:10:55.232Z,101035.38
2023-05-12T19:13:58.280Z,101028.09
2023-05-12T19:17:00.853Z,101034.78
2023-05-12T19:20:03.362Z,101039.84
2023-05-12T19:23:06.037Z,101039.38
2023-05-12T19:26:10.992Z,101048.25
2023-05-12T20:09:51.824Z,101070.91
